Time;durP1;ratioP1;P1;durP2;ratioP2;P2;SDS_P1;SDS_P2;PMS_P1;PMS_P2;Temp;Humidity;BMP_temperature;BMP_pressure;BME280_temperature;BME280_humidity;BME280_pressure;Samples;Min_cycle;Max_cycle;Signal;HPM_P1;HPM_P2
2022/12/16 00:00:21;;;;;;;24.90;14.43;;;;;;;;;;5090610;28;20032;-73
2022/12/16 00:02:47;;;;;;;24.42;14.20;;;;;;;;;;5090634;28;20035;-72
2022/12/16 00:05:12;;;;;;;21.48;13.45;;;;;;;;;;5090852;28;20032;-72
2022/12/16 00:07:37;;;;;;;22.92;13.88;;;;;;;;;;5090561;28;20026;-73
2022/12/16 00:10:03;;;;;;;22.35;12.93;;;;;;;;;;5090306;28;20028;-73
2022/12/16 00:12:29;;;;;;;22.38;13.18;;;;;;;;;;5090249;28;20024;-72
2022/12/16 00:14:54;;;;;;;23.95;12.98;;;;;;;;;;5090661;28;20024;-73
2022/12/16 00:17:20;;;;;;;21.17;13.43;;;;;;;;;;5090138;28;20028;-72
2022/12/16 00:19:45;;;;;;;21.13;12.85;;;;;;;;;;5090533;28;20077;-72
2022/12/16 00:22:10;;;;;;;19.60;11.70;;;;;;;;;;5072421;28;20177;-73
2022/12/16 00:24:36;;;;;;;21.58;12.32;;;;;;;;;;5090435;28;20035;-72
2022/12/16 00:27:01;;;;;;;19.58;11.40;;;;;;;;;;5090393;28;20107;-72
2022/12/16 00:29:27;;;;;;;19.13;11.52;;;;;;;;;;5089908;28;20025;-73
2022/12/16 00:31:52;;;;;;;18.73;11.57;;;;;;;;;;5072410;28;20090;-72
2022/12/16 00:34:17;;;;;;;21.63;11.45;;;;;;;;;;5090185;28;20027;-73
2022/12/16 00:36:43;;;;;;;15.88;9.48;;;;;;;;;;5090443;28;20405;-73
2022/12/16 00:39:11;;;;;;;15.68;9.38;;;;;;;;;;5090121;28;20027;-73
2022/12/16 00:41:37;;;;;;;16.45;9.80;;;;;;;;;;5090417;28;20020;-72
2022/12/16 00:44:02;;;;;;;17.20;9.93;;;;;;;;;;5090055;28;20030;-72
2022/12/16 00:46:28;;;;;;;17.50;9.95;;;;;;;;;;5094037;28;20062;-72
2022/12/16 00:48:54;;;;;;;14.45;9.05;;;;;;;;;;5094689;28;20032;-73
2022/12/16 00:51:19;;;;;;;14.88;8.88;;;;;;;;;;5095535;28;20039;-73
2022/12/16 00:53:44;;;;;;;14.25;8.80;;;;;;;;;;5094304;28;20024;-73
2022/12/16 00:56:13;;;;;;;12.82;8.25;;;;;;;;;;5094466;28;20036;-72
2022/12/16 00:58:39;;;;;;;13.80;8.82;;;;;;;;;;5093813;28;20032;-72
2022/12/16 01:01:04;;;;;;;15.32;9.68;;;;;;;;;;5094206;28;20033;-72
2022/12/16 01:03:30;;;;;;;12.13;8.80;;;;;;;;;;5093833;28;20024;-72
2022/12/16 01:05:55;;;;;;;13.23;8.45;;;;;;;;;;5094014;28;20031;-73
2022/12/16 01:08:21;;;;;;;13.05;8.02;;;;;;;;;;5093755;28;20028;-73
2022/12/16 01:10:54;;;;;;;13.55;8.98;;;;;;;;;;5093811;28;20034;-72
2022/12/16 01:13:21;;;;;;;14.02;9.02;;;;;;;;;;5093709;28;20066;-72
2022/12/16 01:15:47;;;;;;;13.55;8.85;;;;;;;;;;5093995;28;20099;-73
2022/12/16 01:18:13;;;;;;;16.88;9.07;;;;;;;;;;5093665;28;20434;-73
2022/12/16 01:20:38;;;;;;;14.77;9.00;;;;;;;;;;5093573;28;20057;-72
2022/12/16 01:23:04;;;;;;;12.80;8.48;;;;;;;;;;5093463;28;20024;-72
2022/12/16 01:25:29;;;;;;;16.92;8.95;;;;;;;;;;5093486;28;20080;-72
2022/12/16 01:27:54;;;;;;;13.43;8.85;;;;;;;;;;5093317;28;20103;-72
2022/12/16 01:30:20;;;;;;;13.73;9.10;;;;;;;;;;5093926;28;20066;-72
2022/12/16 01:32:45;;;;;;;13.32;8.57;;;;;;;;;;5093597;28;20408;-73
2022/12/16 01:35:12;;;;;;;14.85;9.10;;;;;;;;;;5075251;28;20062;-73
2022/12/16 01:37:37;;;;;;;13.15;8.57;;;;;;;;;;5093485;28;20020;-73
2022/12/16 01:40:04;;;;;;;13.40;8.73;;;;;;;;;;5092947;28;20028;-73
2022/12/16 01:42:30;;;;;;;17.88;9.30;;;;;;;;;;5093270;28;20040;-73
2022/12/16 01:44:56;;;;;;;15.55;8.95;;;;;;;;;;5092905;28;20529;-72
2022/12/16 01:47:26;;;;;;;15.88;9.35;;;;;;;;;;5093830;28;20098;-72
2022/12/16 01:49:54;;;;;;;;;;;;;;;;;;5093437;28;20023;-72
2022/12/16 01:52:26;;;;;;;12.48;8.45;;;;;;;;;;5093364;28;20339;-73
2022/12/16 01:55:02;;;;;;;15.25;8.73;;;;;;;;;;5098935;28;20026;-73
2022/12/16 01:57:46;;;;;;;14.80;9.48;;;;;;;;;;5092739;28;20032;-73
2022/12/16 02:00:12;;;;;;;13.25;8.80;;;;;;;;;;5092534;28;20169;-73
2022/12/16 02:02:38;;;;;;;18.98;9.70;;;;;;;;;;5093191;28;20420;-73
2022/12/16 02:05:19;;;;;;;16.00;10.20;;;;;;;;;;5092817;28;20035;-72
2022/12/16 02:07:55;;;;;;;14.88;9.40;;;;;;;;;;5074785;28;20086;-73
2022/12/16 02:10:42;;;;;;;17.15;9.93;;;;;;;;;;5092572;28;20035;-73
2022/12/16 02:13:39;;;;;;;14.05;9.13;;;;;;;;;;5092696;28;20067;-73
2022/12/16 02:16:22;;;;;;;14.07;9.35;;;;;;;;;;5092694;28;20028;-72
2022/12/16 02:19:12;;;;;;;14.25;9.15;;;;;;;;;;5092469;28;20125;-72
2022/12/16 02:21:37;;;;;;;14.30;8.60;;;;;;;;;;5091828;28;20024;-73
2022/12/16 02:24:19;;;;;;;16.65;9.35;;;;;;;;;;5091794;28;20024;-72
2022/12/16 02:27:02;;;;;;;15.23;9.32;;;;;;;;;;5092476;28;20059;-72
2022/12/16 02:29:53;;;;;;;13.25;9.43;;;;;;;;;;5092104;28;20059;-72
2022/12/16 02:32:21;;;;;;;;;;;;;;;;;;5074711;28;20085;-72
2022/12/16 02:35:01;;;;;;;14.55;9.02;;;;;;;;;;5092174;28;19908;-72
2022/12/16 02:37:38;;;;;;;15.20;9.55;;;;;;;;;;5093507;28;20043;-72
2022/12/16 02:40:14;;;;;;;15.43;9.48;;;;;;;;;;5094493;28;20044;-74
2022/12/16 02:42:46;;;;;;;16.52;9.55;;;;;;;;;;5097462;28;20032;-72
2022/12/16 02:45:22;;;;;;;14.63;9.93;;;;;;;;;;5091758;28;20077;-72
2022/12/16 02:47:47;;;;;;;14.13;9.23;;;;;;;;;;5073902;28;20034;-72
2022/12/16 02:50:19;;;;;;;14.90;9.48;;;;;;;;;;5091514;28;20028;-73
2022/12/16 02:52:44;;;;;;;23.55;11.98;;;;;;;;;;5092051;28;20031;-73
2022/12/16 02:55:11;;;;;;;22.80;11.95;;;;;;;;;;5092054;28;20563;-73
2022/12/16 02:57:58;;;;;;;22.27;11.18;;;;;;;;;;5091826;28;20052;-72
2022/12/16 03:00:25;;;;;;;18.40;10.63;;;;;;;;;;5091621;28;20040;-72
2022/12/16 03:02:50;;;;;;;17.08;9.98;;;;;;;;;;5091338;28;20024;-72
2022/12/16 03:05:31;;;;;;;17.48;9.93;;;;;;;;;;5090522;28;20403;-72
2022/12/16 03:08:01;;;;;;;15.18;9.18;;;;;;;;;;5090625;28;20039;-73
2022/12/16 03:10:31;;;;;;;15.60;10.10;;;;;;;;;;5091353;28;20492;-72
2022/12/16 03:12:59;;;;;;;17.38;9.52;;;;;;;;;;5091579;28;20024;-72
2022/12/16 03:15:27;;;;;;;14.93;9.98;;;;;;;;;;5091491;28;20028;-73
2022/12/16 03:17:54;;;;;;;17.13;10.25;;;;;;;;;;5091592;28;20487;-72
2022/12/16 03:20:27;;;;;;;15.10;9.93;;;;;;;;;;5091256;28;20052;-72
2022/12/16 03:22:58;;;;;;;15.70;10.30;;;;;;;;;;5091865;28;20039;-73
2022/12/16 03:25:25;;;;;;;17.10;10.50;;;;;;;;;;5090931;28;20063;-72
2022/12/16 03:28:15;;;;;;;17.80;10.18;;;;;;;;;;5073025;28;20028;-72
2022/12/16 03:30:46;;;;;;;16.45;10.32;;;;;;;;;;5090921;28;20028;-72
2022/12/16 03:33:22;;;;;;;15.88;9.93;;;;;;;;;;5091400;28;20032;-72
2022/12/16 03:35:58;;;;;;;15.88;10.30;;;;;;;;;;5091097;28;20059;-72
2022/12/16 03:38:26;;;;;;;15.32;10.73;;;;;;;;;;5091406;28;20020;-72
2022/12/16 03:40:52;;;;;;;15.85;9.93;;;;;;;;;;5090612;28;20024;-72
2022/12/16 03:43:18;;;;;;;16.02;10.10;;;;;;;;;;5090828;28;20024;-72
2022/12/16 03:45:45;;;;;;;17.02;10.55;;;;;;;;;;5090570;28;20082;-72
2022/12/16 03:48:12;;;;;;;18.40;10.93;;;;;;;;;;5091201;28;20032;-72
2022/12/16 03:50:38;;;;;;;18.35;10.35;;;;;;;;;;5090667;28;20024;-72
2022/12/16 03:53:04;;;;;;;17.25;9.75;;;;;;;;;;5091007;28;20020;-72
2022/12/16 03:55:30;;;;;;;16.55;10.82;;;;;;;;;;5090700;28;20110;-72
2022/12/16 03:57:56;;;;;;;14.75;10.20;;;;;;;;;;5090674;28;20092;-73
2022/12/16 04:00:22;;;;;;;14.63;10.35;;;;;;;;;;5090283;28;20539;-72
2022/12/16 04:02:48;;;;;;;18.17;9.63;;;;;;;;;;5090708;28;20036;-72
2022/12/16 04:05:14;;;;;;;16.17;10.18;;;;;;;;;;5090529;28;20035;-72
2022/12/16 04:07:39;;;;;;;16.23;10.10;;;;;;;;;;5090853;28;20028;-73
2022/12/16 04:10:06;;;;;;;17.00;10.25;;;;;;;;;;5090468;28;20522;-73
2022/12/16 04:26:17;;;;;;;14.68;9.25;;;;;;;;;;5090393;28;20039;-73
2022/12/16 04:28:43;;;;;;;16.02;9.07;;;;;;;;;;5090530;28;20028;-72
2022/12/16 04:31:08;;;;;;;16.10;8.88;;;;;;;;;;5090079;28;20020;-72
